createdAt,value
2023-03-12T00:02:11.728Z,78.44
2023-03-12T00:04:38.874Z,78.70
2023-03-12T00:07:06.812Z,79.18
2023-03-12T00:09:38.888Z,78.43
2023-03-12T00:12:06.945Z,78.86
2023-03-12T00:14:34.240Z,78.18
2023-03-12T00:17:01.321Z,78.91
2023-03-12T00:19:28.542Z,79.34
2023-03-12T00:21:55.583Z,78.83
2023-03-12T00:24:22.600Z,79.43
2023-03-12T00:26:49.585Z,79.62
2023-03-12T00:29:16.628Z,78.87
2023-03-12T00:31:43.758Z,78.11
2023-03-12T00:34:11.266Z,79.14
2023-03-12T00:36:38.456Z,79.53
2023-03-12T00:39:05.458Z,78.39
2023-03-12T00:41:32.441Z,78.54
2023-03-12T00:43:59.554Z,79.93
2023-03-12T00:46:27.082Z,79.02
2023-03-12T00:48:54.179Z,78.89
2023-03-12T00:51:21.269Z,79.65
2023-03-12T00:53:48.373Z,78.73
2023-03-12T00:56:15.998Z,78.79
2023-03-12T00:58:43.442Z,79.16
2023-03-12T01:01:11.312Z,79.16
2023-03-12T01:03:38.769Z,79.25
2023-03-12T01:06:06.608Z,79.33
2023-03-12T01:08:34.127Z,79.67
2023-03-12T01:11:01.230Z,79.56
2023-03-12T01:13:28.483Z,78.82
2023-03-12T01:15:55.877Z,78.57
2023-03-12T01:18:22.966Z,78.64
2023-03-12T01:20:50.021Z,78.83
2023-03-12T01:23:17.168Z,80.22
2023-03-12T01:25:44.176Z,79.93
2023-03-12T01:28:11.259Z,79.03
2023-03-12T01:30:38.572Z,78.89
2023-03-12T01:33:05.566Z,79.93
2023-03-12T01:35:37.228Z,79.20
2023-03-12T01:38:04.481Z,80.47
2023-03-12T01:40:34.927Z,79.78
2023-03-12T01:43:25.323Z,79.61
2023-03-12T01:46:11.065Z,80.44
2023-03-12T01:48:45.417Z,80.97
2023-03-12T01:51:16.191Z,81.48
2023-03-12T01:53:47.352Z,80.38
2023-03-12T01:56:17.419Z,80.78
2023-03-12T01:58:52.192Z,81.17
2023-03-12T02:01:20.384Z,81.33
2023-03-12T02:03:50.543Z,79.78
2023-03-12T02:06:23.633Z,79.99
2023-03-12T02:08:51.419Z,79.29
2023-03-12T02:11:18.408Z,80.17
2023-03-12T02:13:45.516Z,80.30
2023-03-12T02:16:13.511Z,80.60
2023-03-12T02:18:40.625Z,81.42
2023-03-12T02:21:19.877Z,81.83
2023-03-12T02:24:09.907Z,80.90
2023-03-12T02:26:39.335Z,82.09
2023-03-12T02:29:08.842Z,81.18
2023-03-12T02:31:43.172Z,80.88
2023-03-12T02:34:11.002Z,79.83
2023-03-12T02:36:38.140Z,79.88
2023-03-12T02:39:06.048Z,80.86
2023-03-12T02:41:38.124Z,81.36
2023-03-12T02:44:08.032Z,81.98
2023-03-12T02:46:46.229Z,80.39
2023-03-12T02:49:14.319Z,81.28
2023-03-12T02:51:43.895Z,80.96
2023-03-12T02:54:12.319Z,82.06
2023-03-12T02:56:40.275Z,82.28
2023-03-12T02:59:09.590Z,81.10
2023-03-12T03:01:41.218Z,80.93
2023-03-12T03:04:09.677Z,81.83
2023-03-12T03:06:39.453Z,80.35
2023-03-12T03:09:06.528Z,80.69
2023-03-12T03:11:33.666Z,81.72
2023-03-12T03:14:04.491Z,81.00
2023-03-12T03:16:32.058Z,81.68
2023-03-12T03:18:59.432Z,82.18
2023-03-12T03:21:26.863Z,81.77
2023-03-12T03:23:53.926Z,82.68
2023-03-12T03:26:23.583Z,81.19
2023-03-12T03:28:51.275Z,81.61
2023-03-12T03:31:18.694Z,81.37
2023-03-12T03:33:46.473Z,80.67
2023-03-12T03:36:15.074Z,81.58
2023-03-12T03:38:53.798Z,80.74
2023-03-12T03:41:21.641Z,81.32
2023-03-12T03:43:49.098Z,81.14
2023-03-12T03:46:19.181Z,82.30
2023-03-12T03:48:51.198Z,82.74
2023-03-12T03:51:18.404Z,82.38
2023-03-12T03:53:48.658Z,81.50
2023-03-12T03:56:16.475Z,80.63
2023-03-12T03:58:49.458Z,80.90
2023-03-12T04:01:19.029Z,81.74
2023-03-12T04:03:47.229Z,81.51
2023-03-12T04:06:14.268Z,82.15
2023-03-12T04:08:41.937Z,82.81
2023-03-12T04:11:17.086Z,81.84
2023-03-12T04:13:44.765Z,81.92
2023-03-12T04:16:14.622Z,82.45
2023-03-12T04:18:42.208Z,82.42
2023-03-12T04:21:11.358Z,81.59
2023-03-12T04:23:39.737Z,82.17
2023-03-12T04:26:08.456Z,83.37
2023-03-12T04:28:37.249Z,82.98
2023-03-12T04:31:08.061Z,81.71
2023-03-12T04:33:40.858Z,82.28
2023-03-12T04:36:09.679Z,81.86
2023-03-12T04:38:40.355Z,82.22
2023-03-12T04:41:11.380Z,82.28
2023-03-12T04:43:41.993Z,82.36
2023-03-12T04:46:09.591Z,82.51
2023-03-12T04:48:37.908Z,82.86
2023-03-12T04:51:06.651Z,82.05
2023-03-12T04:53:34.023Z,81.86
2023-03-12T04:56:02.538Z,83.36
2023-03-12T04:58:30.821Z,82.44
2023-03-12T05:00:58.331Z,81.81
2023-03-12T05:03:25.580Z,83.26
2023-03-12T05:05:52.875Z,82.35
2023-03-12T05:08:20.042Z,83.57
2023-03-12T05:10:47.265Z,82.55
2023-03-12T05:13:22.509Z,82.63
2023-03-12T05:15:56.519Z,84.03
2023-03-12T05:18:23.763Z,83.85
2023-03-12T05:21:02.172Z,82.92
2023-03-12T05:23:30.734Z,82.85
2023-03-12T05:25:58.748Z,82.27
2023-03-12T05:28:28.668Z,83.26
2023-03-12T05:31:00.201Z,83.48
2023-03-12T05:33:29.250Z,82.90
2023-03-12T05:35:58.861Z,83.53
2023-03-12T05:38:26.533Z,83.88
2023-03-12T05:40:55.536Z,83.17
2023-03-12T05:43:23.391Z,83.50
2023-03-12T05:45:51.671Z,83.79
2023-03-12T05:48:19.572Z,83.30
2023-03-12T05:50:46.689Z,83.16
2023-03-12T05:53:13.862Z,83.31
2023-03-12T05:55:41.920Z,84.06
2023-03-12T05:58:09.790Z,83.99
2023-03-12T06:00:39.042Z,83.21
2023-03-12T06:03:08.854Z,83.88
2023-03-12T06:05:37.160Z,83.76
2023-03-12T06:08:05.833Z,82.98
2023-03-12T06:10:33.028Z,83.39
2023-03-12T06:13:00.121Z,83.41
2023-03-12T06:15:27.176Z,82.56
2023-03-12T06:17:54.240Z,83.27
2023-03-12T06:20:21.463Z,82.55
2023-03-12T06:22:48.833Z,82.70
2023-03-12T06:25:15.952Z,82.98
2023-03-12T06:27:43.074Z,82.76
2023-03-12T06:30:10.704Z,83.70
2023-03-12T06:32:37.752Z,84.27
2023-03-12T06:35:05.995Z,84.18
2023-03-12T06:37:33.073Z,83.13
2023-03-12T06:40:00.122Z,83.28
2023-03-12T06:42:27.162Z,83.71
2023-03-12T06:44:54.157Z,82.57
2023-03-12T06:47:21.450Z,83.92
2023-03-12T06:49:48.471Z,84.07
2023-03-12T06:52:15.559Z,83.17
2023-03-12T06:54:42.677Z,83.72
2023-03-12T06:57:09.752Z,83.80
2023-03-12T06:59:37.118Z,83.72
2023-03-12T07:02:04.195Z,83.01
2023-03-12T07:04:31.246Z,83.04
2023-03-12T07:06:58.282Z,82.93
2023-03-12T07:09:25.417Z,83.12
2023-03-12T07:11:52.428Z,82.99
2023-03-12T07:14:21.389Z,83.07
2023-03-12T07:16:48.544Z,83.61
2023-03-12T07:19:15.657Z,83.33
2023-03-12T07:21:42.679Z,83.06
2023-03-12T07:24:10.088Z,83.09
2023-03-12T07:26:37.138Z,83.42
2023-03-12T07:29:05.307Z,83.43
2023-03-12T07:31:32.460Z,82.69
2023-03-12T07:33:59.581Z,82.87
2023-03-12T07:36:26.910Z,83.60
2023-03-12T07:38:54.034Z,83.21
2023-03-12T07:41:21.580Z,83.43
2023-03-12T07:43:48.636Z,83.35
2023-03-12T07:46:16.045Z,83.06
2023-03-12T07:48:44.407Z,83.10
2023-03-12T07:51:11.862Z,82.78
2023-03-12T07:53:38.884Z,82.97
2023-03-12T07:56:06.419Z,82.86
2023-03-12T07:58:36.597Z,83.15
2023-03-12T08:01:03.940Z,83.27
2023-03-12T08:03:31.160Z,82.79
2023-03-12T08:06:00.580Z,83.05
2023-03-12T08:08:28.875Z,82.63
2023-03-12T08:10:55.889Z,82.25
2023-03-12T08:13:24.508Z,82.40
2023-03-12T08:15:54.441Z,82.42
2023-03-12T08:18:22.225Z,82.18
2023-03-12T08:20:53.564Z,82.69
2023-03-12T08:23:21.500Z,83.91
2023-03-12T08:25:49.830Z,82.82
2023-03-12T08:28:18.329Z,82.59
2023-03-12T08:30:50.778Z,82.47
2023-03-12T08:33:18.112Z,82.70
2023-03-12T08:35:45.318Z,83.17
2023-03-12T08:38:12.368Z,83.67
2023-03-12T08:40:39.628Z,83.33
2023-03-12T08:43:07.742Z,83.19
2023-03-12T08:45:38.029Z,83.35
2023-03-12T08:48:06.560Z,82.71
2023-03-12T08:50:33.715Z,83.96
2023-03-12T08:53:01.381Z,83.36
2023-03-12T08:55:28.473Z,83.59
2023-03-12T08:57:56.587Z,83.37
2023-03-12T09:00:23.608Z,83.82
2023-03-12T09:02:52.295Z,83.78
2023-03-12T09:05:19.763Z,84.16
2023-03-12T09:07:46.882Z,83.12
2023-03-12T09:10:13.936Z,83.68
2023-03-12T09:12:41.021Z,83.30
2023-03-12T09:15:10.042Z,82.52
2023-03-12T09:17:37.776Z,82.94
2023-03-12T09:20:09.015Z,83.19
2023-03-12T09:22:37.336Z,82.90
2023-03-12T09:25:05.783Z,83.34
2023-03-12T09:27:37.388Z,83.29
2023-03-12T09:30:06.747Z,82.66
2023-03-12T09:32:34.159Z,82.50
2023-03-12T09:35:01.380Z,83.02
2023-03-12T09:37:28.619Z,83.29
2023-03-12T09:39:55.705Z,83.21
2023-03-12T09:42:33.090Z,83.43
2023-03-12T09:45:03.908Z,83.46
2023-03-12T09:47:33.828Z,82.93
2023-03-12T09:50:11.323Z,82.86
2023-03-12T09:52:51.528Z,82.80
2023-03-12T09:55:22.735Z,82.71
2023-03-12T09:57:51.613Z,82.08
2023-03-12T10:00:24.729Z,82.23
2023-03-12T10:02:55.461Z,82.40
2023-03-12T10:05:51.084Z,82.80
2023-03-12T10:08:39.847Z,82.62
2023-03-12T10:11:09.789Z,82.30
2023-03-12T10:13:42.665Z,82.41
2023-03-12T10:17:03.198Z,82.21
2023-03-12T10:19:42.652Z,81.73
2023-03-12T10:22:19.793Z,82.06
2023-03-12T10:25:00.636Z,81.94
2023-03-12T10:27:30.498Z,82.04
2023-03-12T10:29:58.374Z,81.87
2023-03-12T10:32:37.740Z,82.17
2023-03-12T10:35:22.238Z,82.51
2023-03-12T10:37:54.290Z,82.31
2023-03-12T10:40:28.489Z,82.60
2023-03-12T10:42:56.018Z,82.57
2023-03-12T10:45:34.852Z,81.86
2023-03-12T10:48:18.512Z,82.31
2023-03-12T10:51:20.358Z,82.38
2023-03-12T10:53:50.166Z,81.75
2023-03-12T10:56:19.563Z,81.62
2023-03-12T10:58:53.165Z,81.24
2023-03-12T11:01:26.531Z,81.13
2023-03-12T11:04:09.769Z,81.39
2023-03-12T11:06:36.813Z,81.95
2023-03-12T11:09:16.639Z,81.73
2023-03-12T11:11:47.764Z,81.63
2023-03-12T11:14:20.082Z,81.35
2023-03-12T11:16:47.127Z,81.61
2023-03-12T11:19:26.573Z,81.22
2023-03-12T11:22:04.780Z,80.99
2023-03-12T11:24:32.050Z,81.23
2023-03-12T11:27:10.953Z,81.15
2023-03-12T11:29:47.323Z,81.14
2023-03-12T11:32:37.526Z,80.88
2023-03-12T11:35:10.909Z,80.78
2023-03-12T11:38:16.298Z,81.30
2023-03-12T11:41:07.592Z,81.08
2023-03-12T11:43:44.444Z,80.75
2023-03-12T11:46:36.339Z,80.73
2023-03-12T11:49:09.156Z,80.73
2023-03-12T11:51:54.722Z,80.97
2023-03-12T11:54:49.665Z,80.72
2023-03-12T11:57:33.914Z,80.50
2023-03-12T12:00:17.482Z,80.45
2023-03-12T12:03:12.555Z,79.97
2023-03-12T12:06:02.279Z,79.82
2023-03-12T12:09:10.533Z,79.18
2023-03-12T12:12:22.070Z,78.45
2023-03-12T12:15:28.154Z,78.51
2023-03-12T12:18:26.061Z,78.58
2023-03-12T12:21:11.654Z,78.77
2023-03-12T12:23:54.819Z,78.45
2023-03-12T12:26:36.878Z,78.93
2023-03-12T12:29:09.822Z,78.69
2023-03-12T12:31:48.938Z,78.36
2023-03-12T12:34:53.730Z,78.51
2023-03-12T12:37:54.864Z,77.93
2023-03-12T12:40:38.261Z,78.61
2023-03-12T12:43:35.543Z,78.85
2023-03-12T12:46:06.578Z,78.09
2023-03-12T12:48:48.911Z,77.83
2023-03-12T12:51:19.832Z,78.10
2023-03-12T12:54:02.985Z,78.11
2023-03-12T12:56:47.158Z,77.91
2023-03-12T12:59:32.844Z,77.77
2023-03-12T13:02:02.748Z,78.36
2023-03-12T13:04:37.891Z,78.95
2023-03-12T13:07:14.029Z,77.79
2023-03-12T13:09:47.181Z,78.21
2023-03-12T13:12:16.462Z,78.27
2023-03-12T13:14:45.148Z,78.23
2023-03-12T13:17:50.901Z,77.95
2023-03-12T13:20:21.087Z,77.89
2023-03-12T13:23:09.519Z,77.68
2023-03-12T13:25:59.118Z,77.83
2023-03-12T13:28:26.581Z,77.74
2023-03-12T13:30:54.517Z,77.66
2023-03-12T13:33:48.654Z,77.19
2023-03-12T13:36:15.727Z,77.88
2023-03-12T13:39:17.656Z,77.70
2023-03-12T13:41:55.077Z,76.69
2023-03-12T13:44:29.016Z,76.20
2023-03-12T13:47:03.556Z,75.92
2023-03-12T13:49:43.669Z,76.20
2023-03-12T13:52:19.551Z,76.54
2023-03-12T13:54:59.748Z,77.07
2023-03-12T13:57:38.767Z,76.93
2023-03-12T14:00:11.914Z,77.50
2023-03-12T14:02:49.214Z,77.27
2023-03-12T14:05:17.165Z,77.84
2023-03-12T14:07:50.129Z,77.14
2023-03-12T14:10:35.894Z,77.06
2023-03-12T14:13:21.807Z,76.60
2023-03-12T14:16:03.474Z,76.24
2023-03-12T14:18:34.600Z,76.37
2023-03-12T14:21:10.716Z,76.86
2023-03-12T14:23:41.021Z,77.00
2023-03-12T14:26:09.731Z,77.11
2023-03-12T14:28:41.925Z,76.96
2023-03-12T14:31:15.007Z,76.77
2023-03-12T14:33:57.102Z,76.75
2023-03-12T14:36:35.305Z,77.58
2023-03-12T14:39:20.864Z,77.29
2023-03-12T14:41:59.165Z,77.25
2023-03-12T14:44:28.836Z,77.12
2023-03-12T14:47:07.693Z,77.46
2023-03-12T14:49:41.097Z,77.80
2023-03-12T14:52:11.220Z,77.54
2023-03-12T14:54:39.861Z,77.10
2023-03-12T14:57:15.660Z,76.75
2023-03-12T14:59:53.349Z,77.15
2023-03-12T15:02:20.905Z,77.17
2023-03-12T15:04:50.129Z,77.44
2023-03-12T15:07:22.161Z,77.44
2023-03-12T15:09:52.268Z,77.19
2023-03-12T15:12:26.083Z,77.09
2023-03-12T15:15:03.531Z,76.86
2023-03-12T15:17:32.072Z,77.23
2023-03-12T15:20:00.487Z,76.97
2023-03-12T15:22:28.557Z,76.34
2023-03-12T15:24:55.688Z,77.17
2023-03-12T15:27:25.869Z,76.36
2023-03-12T15:29:53.138Z,76.34
2023-03-12T15:32:24.947Z,76.48
2023-03-12T15:34:53.997Z,76.11
2023-03-12T15:37:24.760Z,75.75
2023-03-12T15:39:53.450Z,75.45
2023-03-12T15:42:24.212Z,76.21
2023-03-12T15:45:03.377Z,75.54
2023-03-12T15:47:34.097Z,75.26
2023-03-12T15:50:04.716Z,75.54
2023-03-12T15:52:36.506Z,76.04
2023-03-12T15:55:12.333Z,75.47
2023-03-12T15:57:46.605Z,75.05
2023-03-12T16:00:18.469Z,75.59
2023-03-12T16:02:56.377Z,75.59
2023-03-12T16:05:27.391Z,75.87
2023-03-12T16:07:54.926Z,75.98
2023-03-12T16:10:25.509Z,76.29
2023-03-12T16:12:59.929Z,76.25
2023-03-12T16:15:32.705Z,76.20
2023-03-12T16:18:00.124Z,75.97
2023-03-12T16:20:27.716Z,76.05
2023-03-12T16:22:55.028Z,76.31
2023-03-12T16:25:23.280Z,76.19
2023-03-12T16:27:53.259Z,76.71
2023-03-12T16:30:28.540Z,76.97
2023-03-12T16:32:56.719Z,76.33
2023-03-12T16:35:23.937Z,76.04
2023-03-12T16:37:50.970Z,76.34
2023-03-12T16:40:30.843Z,76.38
2023-03-12T16:43:03.651Z,76.62
2023-03-12T16:45:33.966Z,76.59
2023-03-12T16:48:03.875Z,75.98
2023-03-12T16:50:31.297Z,76.25
2023-03-12T16:52:59.780Z,76.13
2023-03-12T16:55:45.151Z,76.17
2023-03-12T16:58:14.309Z,75.97
2023-03-12T17:00:41.650Z,75.96
2023-03-12T17:03:18.421Z,76.77
2023-03-12T17:05:46.106Z,76.15
2023-03-12T17:08:14.611Z,75.94
2023-03-12T17:10:41.880Z,75.56
2023-03-12T17:13:19.036Z,76.11
2023-03-12T17:15:46.513Z,75.74
2023-03-12T17:18:13.861Z,75.95
2023-03-12T17:20:41.180Z,75.88
2023-03-12T17:23:09.077Z,75.13
2023-03-12T17:25:38.840Z,75.53
2023-03-12T17:28:07.169Z,75.51
2023-03-12T17:30:35.238Z,75.09
2023-03-12T17:33:14.022Z,75.13
2023-03-12T17:35:41.759Z,75.06
2023-03-12T17:38:09.656Z,75.72
2023-03-12T17:40:41.507Z,76.13
2023-03-12T17:43:08.744Z,76.06
2023-03-12T17:45:37.179Z,75.70
2023-03-12T17:48:04.400Z,76.01
2023-03-12T17:50:32.146Z,75.67
2023-03-12T17:52:59.230Z,76.00
2023-03-12T17:55:26.294Z,76.00
2023-03-12T17:57:53.400Z,75.55
2023-03-12T18:00:22.160Z,75.29
2023-03-12T18:02:49.588Z,74.72
2023-03-12T18:05:16.771Z,75.63
2023-03-12T18:07:43.948Z,74.91
2023-03-12T18:10:11.730Z,75.33
2023-03-12T18:12:40.671Z,75.26
2023-03-12T18:15:09.674Z,75.32
2023-03-12T18:17:36.704Z,75.22
2023-03-12T18:20:16.720Z,74.64
2023-03-12T18:22:46.635Z,74.73
2023-03-12T18:25:13.739Z,75.09
2023-03-12T18:27:40.845Z,75.19
2023-03-12T18:30:11.615Z,74.78
2023-03-12T18:32:39.503Z,74.84
2023-03-12T18:35:08.428Z,74.40
2023-03-12T18:37:35.468Z,74.18
2023-03-12T18:40:02.490Z,73.87
2023-03-12T18:42:30.673Z,74.08
2023-03-12T18:44:57.733Z,73.08
2023-03-12T18:47:24.891Z,73.19
2023-03-12T18:49:55.187Z,73.29
2023-03-12T18:52:22.985Z,73.48
2023-03-12T18:54:50.057Z,73.22
2023-03-12T18:57:17.168Z,72.72
2023-03-12T18:59:46.171Z,72.25
2023-03-12T19:02:13.620Z,72.67
2023-03-12T19:04:40.747Z,71.62
2023-03-12T19:07:08.712Z,72.41
2023-03-12T19:09:35.805Z,71.61
2023-03-12T19:12:03.168Z,71.58
2023-03-12T19:14:30.900Z,71.46
2023-03-12T19:16:58.109Z,71.58
2023-03-12T19:19:25.155Z,70.38
2023-03-12T19:21:52.185Z,70.04
2023-03-12T19:24:19.210Z,70.42
2023-03-12T19:26:46.287Z,69.24
2023-03-12T19:29:15.307Z,70.42
2023-03-12T19:31:43.132Z,70.29
2023-03-12T19:34:10.163Z,69.58
2023-03-12T19:36:37.192Z,69.35
2023-03-12T19:39:11.967Z,68.96
2023-03-12T19:41:46.066Z,68.29
2023-03-12T19:44:13.116Z,68.94
2023-03-12T19:46:43.148Z,69.09
2023-03-12T19:49:10.361Z,68.02
2023-03-12T19:51:40.274Z,67.97
2023-03-12T19:54:08.099Z,67.19
2023-03-12T19:56:35.232Z,67.20
2023-03-12T19:59:03.474Z,67.70
2023-03-12T20:01:30.508Z,67.33
2023-03-12T20:03:57.604Z,66.66
2023-03-12T20:06:24.671Z,67.44
2023-03-12T20:08:51.720Z,67.33
2023-03-12T20:11:19.933Z,67.21
2023-03-12T20:13:46.920Z,66.36
2023-03-12T20:16:14.099Z,67.68
2023-03-12T20:18:41.193Z,66.80
2023-03-12T20:21:08.220Z,66.79
2023-03-12T20:23:35.324Z,67.07
2023-03-12T20:26:02.667Z,65.90
2023-03-12T20:28:29.736Z,66.82
2023-03-12T20:30:56.930Z,65.94
2023-03-12T20:33:24.027Z,65.80
2023-03-12T20:35:51.409Z,65.84
2023-03-12T20:38:18.494Z,65.93
2023-03-12T20:40:46.434Z,66.06
2023-03-12T20:43:13.474Z,65.07
2023-03-12T20:45:40.606Z,66.19
2023-03-12T20:48:07.786Z,65.79
2023-03-12T20:50:38.119Z,65.39
2023-03-12T20:53:05.198Z,65.35
2023-03-12T20:55:32.273Z,65.33
2023-03-12T20:57:59.469Z,65.79
2023-03-12T21:00:26.559Z,65.41
2023-03-12T21:02:53.648Z,65.34
2023-03-12T21:05:21.826Z,65.27
2023-03-12T21:07:50.332Z,64.73
2023-03-12T21:10:17.540Z,65.10
2023-03-12T21:12:44.637Z,65.26
2023-03-12T21:15:12.698Z,65.15
2023-03-12T21:17:40.962Z,65.02
2023-03-12T21:20:17.204Z,65.07
2023-03-12T21:22:46.765Z,64.84
2023-03-12T21:25:13.886Z,64.55
2023-03-12T21:27:50.270Z,64.68
2023-03-12T21:30:18.261Z,64.69
2023-03-12T21:32:45.403Z,64.86
2023-03-12T21:35:12.566Z,64.88
2023-03-12T21:37:39.946Z,64.84
2023-03-12T21:40:09.197Z,65.28
2023-03-12T21:42:36.278Z,65.25
2023-03-12T21:45:03.636Z,64.78
2023-03-12T21:47:30.997Z,65.58
2023-03-12T21:49:58.025Z,64.86
2023-03-12T21:52:25.117Z,64.98
2023-03-12T21:54:52.078Z,64.89
2023-03-12T21:57:19.161Z,65.15
2023-03-12T21:59:46.171Z,65.40
2023-03-12T22:02:14.619Z,65.31
2023-03-12T22:04:41.678Z,65.12
2023-03-12T22:07:08.870Z,65.03
2023-03-12T22:09:35.910Z,65.39
2023-03-12T22:12:03.579Z,64.82
2023-03-12T22:14:30.621Z,65.11
2023-03-12T22:16:57.666Z,64.60
2023-03-12T22:19:24.739Z,64.40
2023-03-12T22:21:51.704Z,64.97
2023-03-12T22:24:18.719Z,64.54
2023-03-12T22:26:46.736Z,64.48
2023-03-12T22:29:13.856Z,64.78
2023-03-12T22:31:40.973Z,63.94
2023-03-12T22:34:08.060Z,64.08
2023-03-12T22:36:35.157Z,64.56
2023-03-12T22:39:02.339Z,64.78
2023-03-12T22:41:30.228Z,64.48
2023-03-12T22:44:03.067Z,64.46
2023-03-12T22:46:30.354Z,63.98
2023-03-12T22:49:00.045Z,64.29
2023-03-12T22:51:29.084Z,64.17
2023-03-12T22:53:56.393Z,64.32
2023-03-12T22:56:23.508Z,64.60
2023-03-12T22:58:50.779Z,64.86
2023-03-12T23:01:20.785Z,64.37
2023-03-12T23:03:48.878Z,64.33
2023-03-12T23:06:21.893Z,64.83
2023-03-12T23:08:49.824Z,64.83
2023-03-12T23:11:17.054Z,64.58
2023-03-12T23:13:45.940Z,64.90
2023-03-12T23:16:20.895Z,64.19
2023-03-12T23:18:48.898Z,64.60
2023-03-12T23:21:18.612Z,64.15
2023-03-12T23:23:45.966Z,64.46
2023-03-12T23:26:18.895Z,64.65
2023-03-12T23:28:47.450Z,64.01
2023-03-12T23:31:16.282Z,64.10
2023-03-12T23:33:43.735Z,63.97
2023-03-12T23:36:16.952Z,64.20
2023-03-12T23:38:44.571Z,64.50
2023-03-12T23:41:13.062Z,63.89
2023-03-12T23:43:40.173Z,64.24
2023-03-12T23:46:09.011Z,64.45
2023-03-12T23:48:38.006Z,64.11
2023-03-12T23:51:22.606Z,63.66
2023-03-12T23:53:51.724Z,63.98
2023-03-12T23:56:23.030Z,64.05
2023-03-12T23:58:51.023Z,64.46
